Time;durP1;ratioP1;P1;durP2;ratioP2;P2;SDS_P1;SDS_P2;PMS_P1;PMS_P2;Temp;Humidity;BMP_temperature;BMP_pressure;BME280_temperature;BME280_humidity;BME280_pressure;Samples;Min_cycle;Max_cycle;Signal;HPM_P1;HPM_P2
2021/08/08 00:00:28;;;;;;;3.03;1.30;;;;;;;;;;4972832;28;20213;-85
2021/08/08 00:03:32;;;;;;;4.33;1.30;;;;;;;;;;4963905;28;20182;-85
2021/08/08 00:06:37;;;;;;;5.13;1.30;;;;;;;;;;4940033;28;20205;-85
2021/08/08 00:09:42;;;;;;;2.00;0.90;;;;;;;;;;4955047;28;20555;-85
2021/08/08 00:12:46;;;;;;;4.67;0.90;;;;;;;;;;4970444;28;20187;-85
2021/08/08 00:15:50;;;;;;;3.03;0.80;;;;;;;;;;4966131;28;20629;-85
2021/08/08 00:18:54;;;;;;;2.90;0.77;;;;;;;;;;4957234;28;20205;-85
2021/08/08 00:21:59;;;;;;;1.50;0.77;;;;;;;;;;4966388;28;20542;-85
2021/08/08 00:25:04;;;;;;;5.70;0.80;;;;;;;;;;4954958;28;20191;-85
2021/08/08 00:28:09;;;;;;;9.83;1.17;;;;;;;;;;4955327;28;20183;-85
2021/08/08 00:31:13;;;;;;;1.07;0.50;;;;;;;;;;4955717;28;20225;-85
2021/08/08 00:34:17;;;;;;;2.30;0.80;;;;;;;;;;4956526;28;20187;-85
2021/08/08 00:37:21;;;;;;;2.30;0.60;;;;;;;;;;4943877;28;20202;-85
2021/08/08 00:40:26;;;;;;;3.13;0.70;;;;;;;;;;4948701;28;20222;-85
2021/08/08 00:43:30;;;;;;;2.07;0.70;;;;;;;;;;4984527;28;20194;-85
2021/08/08 00:46:36;;;;;;;1.60;0.60;;;;;;;;;;4967223;28;20649;-86
2021/08/08 00:49:41;;;;;;;4.67;0.63;;;;;;;;;;4952015;28;20218;-85
2021/08/08 00:52:47;;;;;;;1.53;0.80;;;;;;;;;;4935298;29;20290;-85
2021/08/08 00:55:51;;;;;;;3.53;0.77;;;;;;;;;;4965188;28;20194;-86
2021/08/08 00:58:56;;;;;;;1.23;0.70;;;;;;;;;;4962580;28;20186;-85
2021/08/08 01:02:04;;;;;;;2.23;0.70;;;;;;;;;;4971727;28;20190;-85
2021/08/08 01:05:11;;;;;;;3.37;0.80;;;;;;;;;;4985016;28;20183;-85
2021/08/08 01:08:22;;;;;;;6.30;1.00;;;;;;;;;;4973588;28;20186;-85
2021/08/08 01:11:27;;;;;;;3.80;0.70;;;;;;;;;;4960017;28;20223;-85
2021/08/08 01:14:34;;;;;;;4.30;0.70;;;;;;;;;;4960360;28;20199;-85
2021/08/08 01:17:43;;;;;;;5.13;0.80;;;;;;;;;;4953601;28;20207;-85
2021/08/08 01:20:50;;;;;;;1.50;0.77;;;;;;;;;;4955430;28;20226;-85
2021/08/08 01:24:00;;;;;;;3.13;0.60;;;;;;;;;;4943130;28;20187;-85
2021/08/08 01:27:05;;;;;;;1.90;0.60;;;;;;;;;;4953259;28;20206;-85
2021/08/08 01:30:10;;;;;;;0.83;0.50;;;;;;;;;;4953659;28;20222;-85
2021/08/08 01:33:16;;;;;;;2.40;0.60;;;;;;;;;;4954074;28;20195;-85
2021/08/08 01:36:32;;;;;;;3.40;0.77;;;;;;;;;;4955899;28;20186;-85
2021/08/08 01:39:42;;;;;;;0.60;0.53;;;;;;;;;;4935435;28;20223;-85
2021/08/08 01:42:48;;;;;;;1.30;0.50;;;;;;;;;;4945297;29;20628;-85
2021/08/08 01:46:03;;;;;;;1.90;0.77;;;;;;;;;;4968872;28;20194;-85
2021/08/08 01:49:11;;;;;;;2.00;0.40;;;;;;;;;;4953577;28;20190;-85
2021/08/08 01:52:16;;;;;;;2.43;0.60;;;;;;;;;;4953094;28;20223;-85
2021/08/08 01:55:28;;;;;;;0.70;0.60;;;;;;;;;;4958295;28;20546;-85
2021/08/08 01:58:38;;;;;;;0.43;0.43;;;;;;;;;;4973686;28;20186;-85
2021/08/08 02:01:49;;;;;;;2.90;0.73;;;;;;;;;;4983455;28;20183;-85
2021/08/08 02:04:56;;;;;;;1.53;0.60;;;;;;;;;;4993490;28;20186;-85
2021/08/08 02:08:00;;;;;;;0.73;0.50;;;;;;;;;;4949599;28;20644;-85
2021/08/08 02:11:09;;;;;;;4.27;1.00;;;;;;;;;;4961269;28;20226;-85
2021/08/08 02:14:28;;;;;;;4.17;0.70;;;;;;;;;;4961273;28;20190;-85
2021/08/08 02:17:37;;;;;;;3.40;0.60;;;;;;;;;;4983973;28;20178;-86
2021/08/08 02:20:41;;;;;;;3.57;0.60;;;;;;;;;;4943218;28;20238;-86
2021/08/08 02:23:45;;;;;;;1.23;0.60;;;;;;;;;;4941395;28;20198;-86
2021/08/08 02:26:50;;;;;;;2.53;0.60;;;;;;;;;;4971108;28;20542;-85
2021/08/08 02:29:54;;;;;;;5.17;0.60;;;;;;;;;;4960642;28;20688;-85
2021/08/08 02:33:00;;;;;;;2.37;0.50;;;;;;;;;;4963315;28;20195;-85
2021/08/08 02:36:04;;;;;;;1.13;0.40;;;;;;;;;;4954158;28;20194;-85
2021/08/08 02:39:12;;;;;;;1.70;0.70;;;;;;;;;;4960698;28;20186;-85
2021/08/08 02:42:16;;;;;;;2.60;0.50;;;;;;;;;;4951127;28;20202;-85
2021/08/08 02:45:20;;;;;;;1.57;0.50;;;;;;;;;;4953324;28;20198;-85
2021/08/08 02:48:28;;;;;;;1.73;0.47;;;;;;;;;;4952767;28;20199;-85
2021/08/08 02:51:33;;;;;;;4.67;0.73;;;;;;;;;;4963089;28;20214;-85
2021/08/08 02:54:38;;;;;;;2.13;0.50;;;;;;;;;;4942341;28;20198;-85
2021/08/08 02:57:42;;;;;;;1.03;0.50;;;;;;;;;;4963712;28;20183;-85
2021/08/08 03:00:47;;;;;;;2.87;0.57;;;;;;;;;;4941045;28;20222;-85
2021/08/08 03:03:52;;;;;;;2.03;0.57;;;;;;;;;;4952367;28;20195;-85
2021/08/08 03:06:56;;;;;;;4.53;0.60;;;;;;;;;;4940839;28;20203;-85
2021/08/08 03:10:05;;;;;;;4.97;0.47;;;;;;;;;;4924097;28;20231;-84
2021/08/08 03:13:09;;;;;;;5.13;0.60;;;;;;;;;;4941129;28;20182;-85
2021/08/08 03:16:17;;;;;;;2.27;0.53;;;;;;;;;;4958409;28;20645;-85
2021/08/08 03:19:22;;;;;;;4.63;0.50;;;;;;;;;;4942714;28;20697;-85
2021/08/08 03:22:28;;;;;;;1.07;0.50;;;;;;;;;;4966754;28;20198;-85
2021/08/08 03:25:32;;;;;;;4.07;0.57;;;;;;;;;;4959597;28;20649;-85
2021/08/08 03:28:36;;;;;;;4.53;0.63;;;;;;;;;;4971578;28;20507;-85
2021/08/08 03:31:42;;;;;;;0.93;0.60;;;;;;;;;;4941159;28;20218;-85
2021/08/08 03:34:47;;;;;;;1.07;0.40;;;;;;;;;;4977452;28;20559;-85
2021/08/08 03:37:51;;;;;;;0.70;0.60;;;;;;;;;;4971862;28;20174;-85
2021/08/08 03:40:56;;;;;;;0.57;0.50;;;;;;;;;;4932831;29;20227;-85
2021/08/08 03:44:00;;;;;;;4.53;0.70;;;;;;;;;;4963990;28;20198;-84
2021/08/08 03:47:04;;;;;;;2.73;0.70;;;;;;;;;;4971185;28;20206;-85
2021/08/08 03:50:09;;;;;;;1.20;0.93;;;;;;;;;;4970961;28;20221;-85
2021/08/08 03:53:13;;;;;;;1.43;0.80;;;;;;;;;;4932469;29;20204;-85
2021/08/08 03:56:18;;;;;;;7.10;0.67;;;;;;;;;;4954629;29;20188;-85
2021/08/08 03:59:22;;;;;;;4.23;0.73;;;;;;;;;;4944151;28;20218;-86
2021/08/08 04:02:26;;;;;;;2.10;0.97;;;;;;;;;;4944059;29;20199;-85
2021/08/08 04:05:31;;;;;;;2.60;0.50;;;;;;;;;;4933067;29;20199;-86
2021/08/08 04:08:34;;;;;;;1.10;0.60;;;;;;;;;;4960623;28;20650;-85
2021/08/08 04:11:40;;;;;;;2.80;0.70;;;;;;;;;;4953228;28;20226;-85
2021/08/08 04:14:44;;;;;;;3.23;0.70;;;;;;;;;;4966279;28;20206;-86
2021/08/08 04:17:49;;;;;;;2.37;0.60;;;;;;;;;;4963002;28;20202;-86
2021/08/08 04:20:54;;;;;;;3.03;0.60;;;;;;;;;;5029366;23;20232;-75
2021/08/08 04:23:59;;;;;;;2.80;0.70;;;;;;;;;;5023818;28;20217;-74
2021/08/08 04:27:04;;;;;;;0.80;0.70;;;;;;;;;;5027781;28;20192;-73
2021/08/08 04:30:09;;;;;;;1.07;0.77;;;;;;;;;;5025357;28;20189;-73
2021/08/08 04:33:13;;;;;;;2.33;0.60;;;;;;;;;;5011769;28;20220;-73
2021/08/08 04:36:18;;;;;;;3.13;0.60;;;;;;;;;;5012791;28;20189;-75
2021/08/08 04:39:21;;;;;;;4.67;0.93;;;;;;;;;;5023514;28;20180;-74
2021/08/08 04:42:26;;;;;;;1.47;0.60;;;;;;;;;;5014859;28;20185;-73
2021/08/08 04:45:30;;;;;;;3.10;0.90;;;;;;;;;;5032226;28;20195;-74
2021/08/08 04:48:35;;;;;;;0.70;0.70;;;;;;;;;;5043782;28;20550;-74
2021/08/08 04:51:41;;;;;;;1.97;0.90;;;;;;;;;;5007364;28;20205;-73
2021/08/08 04:54:45;;;;;;;1.40;0.70;;;;;;;;;;5003730;28;20182;-74
2021/08/08 04:57:49;;;;;;;0.90;0.67;;;;;;;;;;5018922;28;20196;-74
2021/08/08 05:00:56;;;;;;;5.20;0.90;;;;;;;;;;5013059;28;20184;-73
2021/08/08 05:04:02;;;;;;;1.43;0.60;;;;;;;;;;5023063;28;20216;-75
2021/08/08 05:07:07;;;;;;;4.93;1.00;;;;;;;;;;5023326;28;20184;-74
2021/08/08 05:10:14;;;;;;;1.53;0.70;;;;;;;;;;5011875;28;20184;-74
2021/08/08 05:13:21;;;;;;;1.43;0.60;;;;;;;;;;5002936;28;20220;-74
2021/08/08 05:16:25;;;;;;;1.40;0.90;;;;;;;;;;5003525;28;20177;-75
2021/08/08 05:19:29;;;;;;;0.80;0.70;;;;;;;;;;5024472;28;20180;-75
2021/08/08 05:22:34;;;;;;;1.27;0.57;;;;;;;;;;5024142;28;20217;-74
2021/08/08 05:25:38;;;;;;;4.10;0.83;;;;;;;;;;5018095;28;20612;-74
2021/08/08 05:28:43;;;;;;;2.10;0.60;;;;;;;;;;5019022;28;20189;-74
2021/08/08 05:31:48;;;;;;;2.97;0.73;;;;;;;;;;5007669;28;20208;-74
2021/08/08 05:34:51;;;;;;;2.10;0.50;;;;;;;;;;5019965;28;20196;-74
2021/08/08 05:37:56;;;;;;;2.53;0.60;;;;;;;;;;5034311;28;20548;-75
2021/08/08 05:41:00;;;;;;;0.90;0.60;;;;;;;;;;5016372;28;20196;-74
2021/08/08 05:44:04;;;;;;;0.77;0.50;;;;;;;;;;5030996;28;20529;-74
2021/08/08 05:47:08;;;;;;;3.80;0.63;;;;;;;;;;5007353;28;20524;-74
2021/08/08 05:50:13;;;;;;;2.13;0.70;;;;;;;;;;5001372;28;20189;-74
2021/08/08 05:53:18;;;;;;;3.57;0.67;;;;;;;;;;5006851;28;20228;-74
2021/08/08 05:56:22;;;;;;;2.10;0.50;;;;;;;;;;5035772;28;20208;-74
2021/08/08 05:59:26;;;;;;;0.60;0.40;;;;;;;;;;5026043;28;20199;-74
2021/08/08 06:02:31;;;;;;;4.50;0.63;;;;;;;;;;5021020;28;20212;-74
2021/08/08 06:05:35;;;;;;;1.87;0.40;;;;;;;;;;5011926;28;20184;-75
2021/08/08 06:08:40;;;;;;;1.00;0.53;;;;;;;;;;5026587;28;20192;-74
2021/08/08 06:11:44;;;;;;;1.37;0.50;;;;;;;;;;5049766;28;20175;-74
2021/08/08 06:14:49;;;;;;;3.73;0.50;;;;;;;;;;5032106;28;20671;-74
2021/08/08 06:17:53;;;;;;;0.53;0.47;;;;;;;;;;5018064;28;20181;-74
2021/08/08 06:20:59;;;;;;;1.77;0.50;;;;;;;;;;5031073;28;20204;-74
2021/08/08 06:24:14;;;;;;;1.33;0.50;;;;;;;;;;5026177;28;20212;-74
2021/08/08 06:27:18;;;;;;;0.60;0.43;;;;;;;;;;5037325;28;20756;-74
2021/08/08 06:30:22;;;;;;;2.70;0.57;;;;;;;;;;5020645;28;20188;-74
2021/08/08 06:33:29;;;;;;;1.50;0.83;;;;;;;;;;5018987;28;20228;-74
2021/08/08 06:36:34;;;;;;;1.27;1.07;;;;;;;;;;5019242;28;20793;-75
2021/08/08 06:39:39;;;;;;;2.03;1.20;;;;;;;;;;5017921;28;20196;-74
2021/08/08 06:42:43;;;;;;;2.43;0.57;;;;;;;;;;5029914;28;20695;-74
2021/08/08 06:45:50;;;;;;;1.53;0.70;;;;;;;;;;5006979;28;20181;-75
2021/08/08 06:48:56;;;;;;;2.00;0.50;;;;;;;;;;4997890;28;20186;-75
2021/08/08 06:52:00;;;;;;;2.50;0.87;;;;;;;;;;5016134;28;20650;-75
2021/08/08 06:55:05;;;;;;;1.77;0.70;;;;;;;;;;5025961;28;20188;-74
2021/08/08 06:58:09;;;;;;;0.80;0.70;;;;;;;;;;5049894;28;20195;-74
2021/08/08 07:01:17;;;;;;;0.50;0.50;;;;;;;;;;5025596;28;20222;-74
2021/08/08 07:04:21;;;;;;;2.17;0.67;;;;;;;;;;5037232;28;20204;-74
2021/08/08 07:07:26;;;;;;;10.03;6.03;;;;;;;;;;5019699;28;20208;-74
2021/08/08 07:10:30;;;;;;;1.53;0.63;;;;;;;;;;5006599;28;20258;-74
2021/08/08 07:13:38;;;;;;;4.37;0.80;;;;;;;;;;5016786;28;20228;-74
2021/08/08 07:16:42;;;;;;;5.17;0.80;;;;;;;;;;5017541;28;20189;-74
2021/08/08 07:19:46;;;;;;;1.67;0.70;;;;;;;;;;5018095;28;20532;-74
2021/08/08 07:22:50;;;;;;;2.80;0.70;;;;;;;;;;5033956;28;20220;-74
2021/08/08 07:25:54;;;;;;;2.03;0.80;;;;;;;;;;5016994;28;20691;-74
2021/08/08 07:29:00;;;;;;;2.47;0.87;;;;;;;;;;5006257;28;20189;-74
2021/08/08 07:32:04;;;;;;;1.77;0.70;;;;;;;;;;5017390;28;20560;-74
2021/08/08 07:35:09;;;;;;;1.63;0.77;;;;;;;;;;5037459;28;20659;-74
2021/08/08 07:38:13;;;;;;;3.23;1.40;;;;;;;;;;5049370;28;20674;-74
2021/08/08 07:41:18;;;;;;;4.00;0.90;;;;;;;;;;4995272;28;20529;-75
2021/08/08 07:44:22;;;;;;;1.53;0.80;;;;;;;;;;5001127;28;20556;-74
2021/08/08 07:47:26;;;;;;;6.03;0.70;;;;;;;;;;5011430;28;20188;-74
2021/08/08 07:50:31;;;;;;;1.67;0.60;;;;;;;;;;5024499;28;20524;-75
2021/08/08 07:53:35;;;;;;;1.77;0.70;;;;;;;;;;5024710;28;20552;-74
2021/08/08 07:56:39;;;;;;;3.00;0.77;;;;;;;;;;5024956;28;20524;-75
2021/08/08 07:59:45;;;;;;;1.33;0.50;;;;;;;;;;5024733;28;20192;-74
2021/08/08 08:02:49;;;;;;;1.80;0.77;;;;;;;;;;5009998;28;20216;-74
2021/08/08 08:05:58;;;;;;;3.43;0.80;;;;;;;;;;5044472;28;20176;-75
2021/08/08 08:09:02;;;;;;;1.73;0.70;;;;;;;;;;5043700;28;20523;-74
2021/08/08 08:12:07;;;;;;;6.93;1.00;;;;;;;;;;4993639;28;20640;-74
2021/08/08 08:15:12;;;;;;;1.27;0.57;;;;;;;;;;5027859;28;20187;-74
2021/08/08 08:18:16;;;;;;;2.43;0.80;;;;;;;;;;5026938;28;20189;-75
2021/08/08 08:21:20;;;;;;;3.30;1.20;;;;;;;;;;5023827;28;20208;-75
2021/08/08 08:24:24;;;;;;;2.73;1.00;;;;;;;;;;5024546;28;20212;-73
2021/08/08 08:27:29;;;;;;;1.30;0.70;;;;;;;;;;5030667;28;20180;-74
2021/08/08 08:30:32;;;;;;;3.83;0.87;;;;;;;;;;5055970;28;20178;-74
2021/08/08 08:33:37;;;;;;;1.53;0.80;;;;;;;;;;5014523;28;20226;-74
2021/08/08 08:36:41;;;;;;;2.33;0.70;;;;;;;;;;5023629;28;20647;-75
2021/08/08 08:39:47;;;;;;;3.93;0.80;;;;;;;;;;5001262;28;20188;-75
2021/08/08 08:42:55;;;;;;;1.50;0.80;;;;;;;;;;5035821;28;20213;-74
2021/08/08 08:46:02;;;;;;;6.00;4.10;;;;;;;;;;5023342;28;20656;-74
2021/08/08 08:49:09;;;;;;;3.20;1.90;;;;;;;;;;5012215;28;20660;-74
2021/08/08 08:52:23;;;;;;;3.30;1.10;;;;;;;;;;5023793;28;20644;-74
2021/08/08 08:55:28;;;;;;;3.43;0.77;;;;;;;;;;5023341;28;20520;-74
2021/08/08 08:58:35;;;;;;;1.95;0.70;;;;;;;;;;5026249;28;20194;-74
2021/08/08 09:01:39;;;;;;;1.83;0.70;;;;;;;;;;5023073;28;20210;-75
2021/08/08 09:04:45;;;;;;;1.15;0.60;;;;;;;;;;5023216;28;20188;-75
2021/08/08 09:07:51;;;;;;;3.10;0.60;;;;;;;;;;5035466;28;20186;-75
2021/08/08 09:11:01;;;;;;;0.70;0.50;;;;;;;;;;5003661;28;20636;-75
2021/08/08 09:14:09;;;;;;;0.90;0.45;;;;;;;;;;5022852;28;20227;-76
2021/08/08 09:17:22;;;;;;;1.50;0.60;;;;;;;;;;5026239;28;20200;-74
2021/08/08 09:20:31;;;;;;;1.42;1.25;;;;;;;;;;5021939;28;20211;-75
2021/08/08 09:23:36;;;;;;;9.20;8.38;;;;;;;;;;5024881;28;20566;-74
2021/08/08 09:26:42;;;;;;;3.90;0.90;;;;;;;;;;5030266;28;20195;-75
2021/08/08 09:29:51;;;;;;;1.98;0.60;;;;;;;;;;5024869;28;20179;-75
2021/08/08 09:33:02;;;;;;;7.50;5.32;;;;;;;;;;5011757;28;20222;-75
2021/08/08 09:36:07;;;;;;;1.15;0.80;;;;;;;;;;5036623;28;20648;-75
2021/08/08 09:39:11;;;;;;;2.00;1.20;;;;;;;;;;5032539;28;20191;-75
2021/08/08 09:42:17;;;;;;;2.03;0.75;;;;;;;;;;4993637;28;20198;-75
2021/08/08 09:45:40;;;;;;;2.97;0.73;;;;;;;;;;5032939;28;20207;-75
2021/08/08 09:48:44;;;;;;;8.48;1.27;;;;;;;;;;5037408;28;20661;-75
2021/08/08 09:51:49;;;;;;;2.38;0.60;;;;;;;;;;5025025;28;20193;-77
2021/08/08 09:54:54;;;;;;;1.42;0.70;;;;;;;;;;5019962;28;20685;-75
2021/08/08 09:57:58;;;;;;;1.95;1.10;;;;;;;;;;5031301;28;20197;-75
2021/08/08 10:01:02;;;;;;;3.67;1.30;;;;;;;;;;5005345;28;20192;-75
2021/08/08 10:04:07;;;;;;;60.13;30.02;;;;;;;;;;5050413;28;20215;-75
2021/08/08 10:07:13;;;;;;;6.53;4.15;;;;;;;;;;5029666;28;20189;-75
2021/08/08 10:10:17;;;;;;;14.82;9.23;;;;;;;;;;5018303;28;20193;-75
2021/08/08 10:13:52;;;;;;;21.38;12.02;;;;;;;;;;5018202;28;20213;-75
2021/08/08 10:16:56;;;;;;;14.23;8.15;;;;;;;;;;5031557;28;20205;-75
2021/08/08 10:20:03;;;;;;;4.70;2.47;;;;;;;;;;5011720;28;20213;-75
2021/08/08 10:23:13;;;;;;;6.28;2.83;;;;;;;;;;5004289;28;20219;-74
2021/08/08 10:26:18;;;;;;;10.60;9.00;;;;;;;;;;5010344;28;20592;-74
2021/08/08 10:29:23;;;;;;;1.95;1.00;;;;;;;;;;5034675;28;20206;-75
2021/08/08 10:32:28;;;;;;;2.58;1.05;;;;;;;;;;5006690;28;20845;-75
2021/08/08 10:35:39;;;;;;;3.38;1.08;;;;;;;;;;5049614;28;20184;-75
2021/08/08 10:38:43;;;;;;;1.65;1.10;;;;;;;;;;5023643;28;20191;-75
2021/08/08 10:41:57;;;;;;;1.88;0.70;;;;;;;;;;5038965;28;20540;-75
2021/08/08 10:45:01;;;;;;;3.95;0.77;;;;;;;;;;5027520;28;20534;-74
2021/08/08 10:48:08;;;;;;;2.00;1.05;;;;;;;;;;5034469;28;20207;-74
2021/08/08 10:51:31;;;;;;;2.45;0.50;;;;;;;;;;5017686;28;20802;-75
2021/08/08 10:54:42;;;;;;;5.97;3.13;;;;;;;;;;5018266;28;20207;-75
2021/08/08 10:57:48;;;;;;;3.33;1.30;;;;;;;;;;5022850;28;20193;-74
2021/08/08 11:00:52;;;;;;;3.45;1.85;;;;;;;;;;5020481;28;20202;-75
2021/08/08 11:03:59;;;;;;;3.50;1.33;;;;;;;;;;5021778;28;20225;-77
2021/08/08 11:07:04;;;;;;;1.90;0.95;;;;;;;;;;5018640;28;20198;-77
2021/08/08 11:10:10;;;;;;;8.32;1.00;;;;;;;;;;5019018;28;20180;-77
2021/08/08 11:13:19;;;;;;;3.38;0.90;;;;;;;;;;5018569;28;20697;-77
2021/08/08 11:16:23;;;;;;;0.77;0.55;;;;;;;;;;5022012;28;20191;-75
2021/08/08 11:19:36;;;;;;;1.30;1.08;;;;;;;;;;5037336;28;20177;-74
2021/08/08 11:22:40;;;;;;;3.80;0.90;;;;;;;;;;5050080;28;20223;-75
2021/08/08 11:25:45;;;;;;;1.33;0.47;;;;;;;;;;5043625;28;20191;-74
2021/08/08 11:28:51;;;;;;;2.08;1.00;;;;;;;;;;5038429;28;20195;-74
2021/08/08 11:32:00;;;;;;;1.58;0.60;;;;;;;;;;5021606;28;20613;-75
2021/08/08 11:35:13;;;;;;;0.65;0.50;;;;;;;;;;5040639;28;20219;-74
2021/08/08 11:38:21;;;;;;;1.33;0.75;;;;;;;;;;5035863;28;20522;-74
2021/08/08 11:41:26;;;;;;;0.95;0.50;;;;;;;;;;5034248;28;20207;-74
2021/08/08 11:44:42;;;;;;;0.38;0.35;;;;;;;;;;5046919;28;20226;-74
2021/08/08 11:47:46;;;;;;;1.02;0.50;;;;;;;;;;4998700;28;20194;-74
2021/08/08 11:51:03;;;;;;;0.98;0.52;;;;;;;;;;5032983;28;20190;-75
2021/08/08 11:54:08;;;;;;;1.98;0.50;;;;;;;;;;5032804;28;20228;-74
2021/08/08 11:57:27;;;;;;;1.45;0.70;;;;;;;;;;5042589;28;20208;-75
2021/08/08 12:00:35;;;;;;;2.97;1.00;;;;;;;;;;5024260;28;20207;-75
2021/08/08 12:03:39;;;;;;;0.80;0.50;;;;;;;;;;5047924;28;20574;-74
2021/08/08 12:06:43;;;;;;;2.92;0.88;;;;;;;;;;5009200;28;20194;-74
2021/08/08 12:09:49;;;;;;;1.23;0.80;;;;;;;;;;5032770;28;20518;-75
2021/08/08 12:12:53;;;;;;;1.98;0.82;;;;;;;;;;5011103;28;20561;-74
2021/08/08 12:15:57;;;;;;;3.60;0.77;;;;;;;;;;5028490;28;20186;-74
2021/08/08 12:19:02;;;;;;;2.35;0.98;;;;;;;;;;5040059;28;20204;-75
2021/08/08 12:22:11;;;;;;;2.65;0.68;;;;;;;;;;5037559;28;20209;-74
2021/08/08 12:25:20;;;;;;;2.60;0.75;;;;;;;;;;5008891;28;20528;-74
2021/08/08 12:28:25;;;;;;;2.22;0.63;;;;;;;;;;5034933;28;20195;-75
2021/08/08 12:31:34;;;;;;;2.70;0.63;;;;;;;;;;5020589;28;20643;-75
2021/08/08 12:34:40;;;;;;;1.20;0.50;;;;;;;;;;5031087;28;20686;-75
2021/08/08 12:37:46;;;;;;;1.17;0.70;;;;;;;;;;5039702;28;20203;-75
2021/08/08 12:40:54;;;;;;;2.10;0.70;;;;;;;;;;5021550;28;20692;-74
2021/08/08 12:44:00;;;;;;;1.20;0.60;;;;;;;;;;5037336;23;20239;-73
2021/08/08 12:47:05;;;;;;;5.90;0.87;;;;;;;;;;5036013;28;20508;-75
2021/08/08 12:50:13;;;;;;;1.57;0.63;;;;;;;;;;5046657;28;20186;-74
2021/08/08 12:53:17;;;;;;;2.20;0.60;;;;;;;;;;5035633;28;20213;-73
2021/08/08 12:56:21;;;;;;;4.47;0.90;;;;;;;;;;5035473;28;20196;-73
2021/08/08 12:59:26;;;;;;;1.20;0.80;;;;;;;;;;5035676;28;20177;-73
2021/08/08 13:02:30;;;;;;;1.40;0.80;;;;;;;;;;5035350;28;20217;-73
2021/08/08 13:05:34;;;;;;;3.13;0.90;;;;;;;;;;5035377;28;20173;-73
2021/08/08 13:08:38;;;;;;;2.03;0.97;;;;;;;;;;5035299;28;20632;-73
2021/08/08 13:11:42;;;;;;;1.20;0.63;;;;;;;;;;5035217;28;20178;-73
2021/08/08 13:14:46;;;;;;;2.83;0.70;;;;;;;;;;5022972;28;20209;-74
2021/08/08 13:17:50;;;;;;;2.00;0.90;;;;;;;;;;5035392;28;20180;-74
2021/08/08 13:21:01;;;;;;;2.03;0.80;;;;;;;;;;5012067;28;20185;-74
2021/08/08 13:24:05;;;;;;;1.13;0.70;;;;;;;;;;5034953;28;20690;-73
2021/08/08 13:27:08;;;;;;;3.93;1.03;;;;;;;;;;5035217;28;20178;-74
2021/08/08 13:30:13;;;;;;;3.20;1.33;;;;;;;;;;5034993;28;20186;-74
2021/08/08 13:33:17;;;;;;;1.27;0.60;;;;;;;;;;5022684;28;20712;-74
2021/08/08 13:36:21;;;;;;;1.33;0.60;;;;;;;;;;5035025;28;20175;-74
2021/08/08 13:39:25;;;;;;;1.53;0.60;;;;;;;;;;5022846;28;20173;-74
2021/08/08 13:42:29;;;;;;;1.17;0.60;;;;;;;;;;5034590;28;20223;-74
2021/08/08 13:45:34;;;;;;;2.57;1.00;;;;;;;;;;5034296;28;20172;-74
2021/08/08 13:48:38;;;;;;;1.53;0.67;;;;;;;;;;5022640;28;20646;-74
2021/08/08 13:51:43;;;;;;;1.53;0.70;;;;;;;;;;5034772;28;20188;-74
2021/08/08 13:54:47;;;;;;;1.87;0.80;;;;;;;;;;5022196;28;20215;-74
2021/08/08 13:57:52;;;;;;;1.67;0.70;;;;;;;;;;5022199;28;20198;-74
2021/08/08 14:00:56;;;;;;;1.00;0.50;;;;;;;;;;5034313;28;20203;-74
2021/08/08 14:04:00;;;;;;;2.23;0.67;;;;;;;;;;5034405;28;20223;-74
2021/08/08 14:07:04;;;;;;;1.80;0.77;;;;;;;;;;5034488;28;20187;-74
2021/08/08 14:10:10;;;;;;;2.40;0.70;;;;;;;;;;5034114;28;20191;-74
2021/08/08 14:13:15;;;;;;;2.77;0.70;;;;;;;;;;5033941;28;20219;-74
2021/08/08 14:16:19;;;;;;;2.13;0.90;;;;;;;;;;5033968;28;20214;-74
2021/08/08 14:19:23;;;;;;;1.17;0.60;;;;;;;;;;5010506;28;20180;-74
2021/08/08 14:22:27;;;;;;;2.73;1.00;;;;;;;;;;5022243;28;20526;-74
2021/08/08 14:25:31;;;;;;;1.27;0.87;;;;;;;;;;5034115;28;20191;-74
2021/08/08 14:28:36;;;;;;;2.57;1.30;;;;;;;;;;5021947;28;20206;-74
2021/08/08 14:31:40;;;;;;;1.97;0.80;;;;;;;;;;5033724;28;20540;-74
2021/08/08 14:34:44;;;;;;;3.77;0.90;;;;;;;;;;5021692;28;20536;-73
2021/08/08 14:37:48;;;;;;;1.23;0.80;;;;;;;;;;5021748;28;20659;-74
2021/08/08 14:40:52;;;;;;;1.93;0.60;;;;;;;;;;5033893;28;20654;-73
2021/08/08 14:43:57;;;;;;;3.63;0.80;;;;;;;;;;5033481;28;20232;-74
2021/08/08 14:47:01;;;;;;;2.67;0.70;;;;;;;;;;5033903;28;20180;-74
2021/08/08 14:50:07;;;;;;;3.00;0.70;;;;;;;;;;5033521;28;20200;-74
2021/08/08 14:53:11;;;;;;;5.83;0.77;;;;;;;;;;5033423;28;20216;-74
2021/08/08 14:56:15;;;;;;;2.20;0.97;;;;;;;;;;5033535;28;20212;-75
2021/08/08 14:59:19;;;;;;;1.07;0.70;;;;;;;;;;4998555;28;20204;-74
2021/08/08 15:02:23;;;;;;;3.43;0.90;;;;;;;;;;5021169;28;20196;-74
2021/08/08 15:05:27;;;;;;;2.43;0.63;;;;;;;;;;5033281;28;20200;-74
2021/08/08 15:08:31;;;;;;;1.70;0.80;;;;;;;;;;5033352;28;20185;-74
2021/08/08 15:11:35;;;;;;;2.63;0.80;;;;;;;;;;5033548;28;20176;-74
2021/08/08 15:14:40;;;;;;;4.00;1.00;;;;;;;;;;5010047;28;20208;-74
2021/08/08 15:17:44;;;;;;;1.30;0.90;;;;;;;;;;5021416;28;20181;-74
2021/08/08 15:20:48;;;;;;;3.33;0.87;;;;;;;;;;5021457;28;20173;-74
2021/08/08 15:23:52;;;;;;;2.80;1.00;;;;;;;;;;5033137;28;20220;-74
2021/08/08 15:26:56;;;;;;;2.97;0.90;;;;;;;;;;5033783;28;20177;-74
2021/08/08 15:30:02;;;;;;;3.50;0.80;;;;;;;;;;5033163;28;20177;-74
2021/08/08 15:33:06;;;;;;;4.20;1.10;;;;;;;;;;5021040;28;20682;-74
2021/08/08 15:36:10;;;;;;;2.03;0.83;;;;;;;;;;5009418;28;20213;-74
2021/08/08 15:39:14;;;;;;;2.43;0.87;;;;;;;;;;5033255;28;20185;-74
2021/08/08 15:42:18;;;;;;;1.07;0.70;;;;;;;;;;5020956;28;20185;-74
2021/08/08 15:45:22;;;;;;;3.23;1.00;;;;;;;;;;5032884;28;20192;-74
2021/08/08 15:48:26;;;;;;;3.23;0.80;;;;;;;;;;5021395;28;20181;-74
2021/08/08 15:51:30;;;;;;;3.10;0.90;;;;;;;;;;5033447;28;20521;-74
2021/08/08 15:54:34;;;;;;;3.90;0.93;;;;;;;;;;5032847;28;20224;-73
2021/08/08 15:57:38;;;;;;;1.67;0.73;;;;;;;;;;5033201;28;20181;-74
2021/08/08 16:00:43;;;;;;;2.93;0.80;;;;;;;;;;5033073;28;20181;-73
2021/08/08 16:03:47;;;;;;;3.00;0.70;;;;;;;;;;5033567;28;20204;-74
2021/08/08 16:06:51;;;;;;;2.93;0.80;;;;;;;;;;5032817;28;20521;-74
2021/08/08 16:09:55;;;;;;;2.57;0.97;;;;;;;;;;5035272;28;20185;-74
2021/08/08 16:12:59;;;;;;;1.17;0.80;;;;;;;;;;5036506;28;20217;-74
2021/08/08 16:16:04;;;;;;;3.87;0.77;;;;;;;;;;5036209;28;20205;-74
2021/08/08 16:19:08;;;;;;;1.30;0.77;;;;;;;;;;5036469;28;20189;-72
2021/08/08 16:22:12;;;;;;;3.67;0.80;;;;;;;;;;5036398;28;20181;-73
2021/08/08 16:25:17;;;;;;;1.10;0.80;;;;;;;;;;5036166;28;20177;-73
2021/08/08 16:28:21;;;;;;;2.53;0.90;;;;;;;;;;5036005;28;20192;-74
2021/08/08 16:31:25;;;;;;;2.40;0.83;;;;;;;;;;5024782;28;20196;-73
2021/08/08 16:34:29;;;;;;;1.00;0.70;;;;;;;;;;5036340;28;20623;-74
2021/08/08 16:37:34;;;;;;;1.60;0.70;;;;;;;;;;5030094;28;20185;-74
2021/08/08 16:40:37;;;;;;;2.20;0.73;;;;;;;;;;5035593;28;20188;-74
2021/08/08 16:43:42;;;;;;;0.70;0.70;;;;;;;;;;5051289;28;20223;-73
2021/08/08 16:46:47;;;;;;;1.47;0.70;;;;;;;;;;5042312;28;20192;-73
2021/08/08 16:49:51;;;;;;;2.43;0.87;;;;;;;;;;5032083;28;20196;-74
2021/08/08 16:52:55;;;;;;;3.43;0.80;;;;;;;;;;5008658;28;20224;-74
2021/08/08 16:55:59;;;;;;;2.10;0.90;;;;;;;;;;5019392;28;20212;-74
2021/08/08 16:59:03;;;;;;;3.20;0.70;;;;;;;;;;5030492;28;20199;-74
2021/08/08 17:02:07;;;;;;;3.57;0.70;;;;;;;;;;5012504;28;20540;-74
2021/08/08 17:05:12;;;;;;;1.40;0.77;;;;;;;;;;5032210;28;20904;-74
2021/08/08 17:08:16;;;;;;;6.00;0.73;;;;;;;;;;5031548;28;20189;-74
2021/08/08 17:11:23;;;;;;;2.43;0.90;;;;;;;;;;5019646;28;20185;-74
2021/08/08 17:14:27;;;;;;;1.70;0.77;;;;;;;;;;5046209;28;20758;-74
2021/08/08 17:17:33;;;;;;;3.60;1.00;;;;;;;;;;5051567;28;20196;-74
2021/08/08 17:20:38;;;;;;;2.17;0.80;;;;;;;;;;5050329;28;20666;-75
2021/08/08 17:23:42;;;;;;;1.70;0.90;;;;;;;;;;5041211;28;20224;-74
2021/08/08 17:26:47;;;;;;;2.40;0.87;;;;;;;;;;5031138;28;20200;-73
2021/08/08 17:29:50;;;;;;;3.93;1.20;;;;;;;;;;5030939;28;20192;-73
2021/08/08 17:32:55;;;;;;;3.10;1.10;;;;;;;;;;5018797;28;20228;-73
2021/08/08 17:36:00;;;;;;;4.70;1.30;;;;;;;;;;5031292;28;20548;-73
2021/08/08 17:39:05;;;;;;;3.90;0.93;;;;;;;;;;5046536;28;20189;-73
2021/08/08 17:42:09;;;;;;;2.27;1.00;;;;;;;;;;5032259;28;20200;-73
2021/08/08 17:45:13;;;;;;;2.13;1.03;;;;;;;;;;4998841;28;20209;-73
2021/08/08 17:48:18;;;;;;;3.53;1.20;;;;;;;;;;5025951;28;20196;-72
2021/08/08 17:51:22;;;;;;;3.87;1.20;;;;;;;;;;5038525;28;20180;-73
2021/08/08 17:54:26;;;;;;;3.90;1.10;;;;;;;;;;5026914;28;20520;-73
2021/08/08 17:57:30;;;;;;;2.93;1.00;;;;;;;;;;5050204;28;20208;-73
2021/08/08 18:00:34;;;;;;;3.00;1.30;;;;;;;;;;5048695;28;20195;-72
2021/08/08 18:03:39;;;;;;;1.40;1.20;;;;;;;;;;5043287;28;20223;-73
2021/08/08 18:06:44;;;;;;;2.97;1.00;;;;;;;;;;5050574;28;20200;-72
2021/08/08 18:09:48;;;;;;;5.43;1.33;;;;;;;;;;5050735;28;20180;-73
2021/08/08 18:12:52;;;;;;;3.63;1.23;;;;;;;;;;5011388;28;20762;-74
2021/08/08 18:15:56;;;;;;;4.53;1.50;;;;;;;;;;5038975;28;20560;-75
2021/08/08 18:19:00;;;;;;;2.67;1.13;;;;;;;;;;5030643;28;20208;-74
2021/08/08 18:22:05;;;;;;;3.90;1.27;;;;;;;;;;5045812;28;20192;-76
2021/08/08 18:25:09;;;;;;;2.63;1.40;;;;;;;;;;5050294;28;20206;-72
2021/08/08 18:28:13;;;;;;;1.27;0.97;;;;;;;;;;5042178;28;20528;-72
2021/08/08 18:31:18;;;;;;;2.53;1.20;;;;;;;;;;4987117;28;20632;-71